CheckWX is a tool to help pilots better visualize weather data.  It is not intended as a substitute for an official pre-flight weather briefing.

13:39:13 UTC

KSAT TAF
San Antonio International Airport
San Antonio, Texas, USA
KSAT 291120Z 2912/3018 33012KT P6SM SKC FM292200 02008KT P6SM SKC FM300800 02006KT P6SM BKN015 FM301200 04007KT P6SM OVC006

Jan-29@
12:00 UTC

Jan-29 @ 12:00 UTC

Jan-29@
22:00 UTC

Jan-29 @ 22:00 UTC

KSAT 291120Z 2912/3018 33012KT P6SM SKC
Wind
  • 330° at 12 KTS
Cloud Levels
  • Clear skies

Jan-29@
22:00 UTC

Jan-29 @ 22:00 UTC

Jan-30@
08:00 UTC

Jan-30 @ 08:00 UTC

FM292200 02008KT P6SM SKC

From

From Standard forecast or significant change

Wind
  • 020° at 8 KTS
Cloud Levels
  • Clear skies

Jan-30@
08:00 UTC

Jan-30 @ 08:00 UTC

Jan-30@
12:00 UTC

Jan-30 @ 12:00 UTC

FM300800 02006KT P6SM BKN015

From

From Standard forecast or significant change

Wind
  • 020° at 6 KTS
Cloud Levels
  • Broken at 1,500' AGL

Jan-30@
12:00 UTC

Jan-30 @ 12:00 UTC

Jan-30@
18:00 UTC

Jan-30 @ 18:00 UTC

FM301200 04007KT P6SM OVC006

From

From Standard forecast or significant change

Wind
  • 040° at 7 KTS
Cloud Levels
  • Overcast at 600' AGL